Time;durP1;ratioP1;P1;durP2;ratioP2;P2;SDS_P1;SDS_P2;PMS_P1;PMS_P2;Temp;Humidity;BMP_temperature;BMP_pressure;BME280_temperature;BME280_humidity;BME280_pressure;Samples;Min_cycle;Max_cycle;Signal;HPM_P1;HPM_P2
2023/05/23 03:00:33;;;;;;;31.92;10.40;;;13.10;99.90;;;;;;5955878;23;21095;-76
2023/05/23 03:02:59;;;;;;;30.13;9.73;;;13.10;99.90;;;;;;4996590;28;20045;-75
2023/05/23 03:05:25;;;;;;;26.27;10.27;;;13.10;99.90;;;;;;4997077;28;20050;-75
2023/05/23 03:07:51;;;;;;;25.08;8.57;;;13.10;99.90;;;;;;4979394;28;20070;-76
2023/05/23 03:10:16;;;;;;;24.48;9.70;;;13.10;99.90;;;;;;4995736;28;20042;-76
2023/05/23 03:12:42;;;;;;;25.60;9.85;;;13.00;99.90;;;;;;4995979;28;20129;-75
2023/05/23 03:15:09;;;;;;;26.75;9.00;;;13.00;99.90;;;;;;4996941;28;20038;-74
2023/05/23 03:17:34;;;;;;;29.80;9.52;;;13.00;99.90;;;;;;4996897;28;20490;-76
2023/05/23 03:20:00;;;;;;;25.42;9.18;;;13.00;99.90;;;;;;4995555;28;20121;-74
2023/05/23 03:22:26;;;;;;;26.77;9.15;;;13.00;99.90;;;;;;4995675;28;20085;-77
2023/05/23 03:24:51;;;;;;;23.98;9.52;;;13.00;99.90;;;;;;4979222;28;20406;-75
2023/05/23 03:27:17;;;;;;;29.65;8.88;;;12.90;99.90;;;;;;4996608;28;20046;-75
2023/05/23 03:29:43;;;;;;;27.38;9.20;;;12.90;99.90;;;;;;4995335;28;20155;-76
2023/05/23 03:32:08;;;;;;;23.08;8.63;;;13.00;99.90;;;;;;4979067;28;20057;-74
2023/05/23 03:34:35;;;;;;;24.42;7.47;;;13.00;99.90;;;;;;4996549;28;20165;-76
2023/05/23 03:37:00;;;;;;;22.42;7.78;;;12.90;99.90;;;;;;4978968;28;20488;-75
2023/05/23 03:39:26;;;;;;;21.88;7.65;;;12.90;99.90;;;;;;4995479;28;20057;-76
2023/05/23 03:41:52;;;;;;;21.92;7.38;;;12.80;99.90;;;;;;4996347;28;20522;-78
2023/05/23 03:44:17;;;;;;;29.73;6.78;;;12.80;99.90;;;;;;4995313;28;20112;-76
2023/05/23 03:46:43;;;;;;;22.25;7.10;;;12.80;99.90;;;;;;4994975;28;20043;-76
2023/05/23 03:49:09;;;;;;;23.83;7.13;;;12.80;99.90;;;;;;4995038;28;20061;-82
2023/05/23 03:51:34;;;;;;;30.52;7.38;;;12.80;99.90;;;;;;4994134;28;20042;-76
2023/05/23 03:54:00;;;;;;;24.17;6.88;;;12.80;99.90;;;;;;4994761;28;20044;-75
2023/05/23 03:56:26;;;;;;;22.75;6.70;;;12.70;99.90;;;;;;4994971;28;20048;-76
2023/05/23 03:58:51;;;;;;;25.73;7.32;;;12.80;99.90;;;;;;4996713;28;20037;-75
2023/05/23 04:01:17;;;;;;;19.38;6.30;;;12.70;99.90;;;;;;4994787;28;20123;-73
2023/05/23 04:03:43;;;;;;;19.38;7.00;;;12.70;99.90;;;;;;4996242;28;20557;-75
2023/05/23 04:06:08;;;;;;;24.85;7.20;;;12.70;99.90;;;;;;4994666;28;20050;-74
2023/05/23 04:08:34;;;;;;;25.73;7.20;;;12.70;99.90;;;;;;4995864;28;20056;-75
2023/05/23 04:11:00;;;;;;;22.25;6.78;;;12.60;99.90;;;;;;4994669;28;20125;-76
2023/05/23 04:13:27;;;;;;;20.65;7.30;;;12.60;99.90;;;;;;4996038;28;20042;-76
2023/05/23 04:15:54;;;;;;;26.92;7.95;;;12.60;99.90;;;;;;4994645;28;20042;-76
2023/05/23 04:18:21;;;;;;;22.75;7.63;;;12.60;99.90;;;;;;4994270;28;20177;-75
2023/05/23 04:20:47;;;;;;;22.23;8.75;;;12.60;99.90;;;;;;4994136;28;20046;-74
2023/05/23 04:23:12;;;;;;;30.73;9.02;;;12.50;99.90;;;;;;4995577;28;20060;-74
2023/05/23 04:25:38;;;;;;;17.30;8.07;;;12.50;99.90;;;;;;4994135;28;20050;-75
2023/05/23 04:28:05;;;;;;;24.42;8.98;;;12.50;99.90;;;;;;4994255;28;20124;-76
2023/05/23 04:30:32;;;;;;;23.90;8.63;;;12.50;99.90;;;;;;4994405;28;20395;-76
2023/05/23 04:32:59;;;;;;;27.15;8.63;;;12.50;99.90;;;;;;4995729;28;20116;-81
2023/05/23 04:35:27;;;;;;;26.05;7.85;;;12.50;99.90;;;;;;4994203;28;20255;-77
2023/05/23 04:37:56;;;;;;;18.08;7.07;;;12.50;99.90;;;;;;4994023;28;20057;-77
2023/05/23 04:40:23;;;;;;;21.20;6.50;;;12.50;99.90;;;;;;4993989;28;20133;-77
2023/05/23 04:42:50;;;;;;;24.08;6.28;;;12.50;99.90;;;;;;4994229;28;20413;-77
2023/05/23 04:45:16;;;;;;;25.80;8.23;;;12.40;99.90;;;;;;4993885;28;20050;-77
2023/05/23 04:47:43;;;;;;;22.92;7.03;;;12.40;99.90;;;;;;4994343;28;20042;-79
2023/05/23 04:50:10;;;;;;;20.23;5.82;;;12.40;99.90;;;;;;4977877;28;20038;-77
2023/05/23 04:52:35;;;;;;;20.60;5.80;;;12.40;99.90;;;;;;4995132;28;20056;-78
2023/05/23 04:55:01;;;;;;;20.33;5.88;;;12.40;99.90;;;;;;4995355;28;20482;-79
2023/05/23 04:57:28;;;;;;;15.23;4.97;;;12.40;99.90;;;;;;4993588;28;20081;-79
2023/05/23 04:59:54;;;;;;;23.92;6.22;;;12.40;99.90;;;;;;4995158;28;20082;-81
2023/05/23 05:02:19;;;;;;;16.42;5.30;;;12.40;99.90;;;;;;4960028;28;20051;-80
2023/05/23 05:04:45;;;;;;;17.10;4.95;;;12.30;99.90;;;;;;4954679;28;20043;-78
2023/05/23 05:07:10;;;;;;;18.52;5.15;;;12.30;99.90;;;;;;4954905;28;20410;-80
2023/05/23 05:09:38;;;;;;;16.67;5.72;;;12.20;99.90;;;;;;4954908;28;20082;-78
2023/05/23 05:12:04;;;;;;;17.67;5.20;;;12.20;99.90;;;;;;4954793;28;20087;-79
2023/05/23 05:14:30;;;;;;;19.30;5.88;;;12.20;99.90;;;;;;4954670;29;20074;-77
2023/05/23 05:16:56;;;;;;;19.67;6.75;;;12.20;99.90;;;;;;4954922;29;20056;-77
2023/05/23 05:19:23;;;;;;;15.95;5.38;;;12.20;99.90;;;;;;4938906;29;20451;-77
2023/05/23 05:21:49;;;;;;;23.35;5.95;;;12.20;99.90;;;;;;4956006;28;20035;-78
2023/05/23 05:24:15;;;;;;;18.58;6.00;;;12.20;99.90;;;;;;4956105;28;20097;-76
2023/05/23 05:26:41;;;;;;;17.73;6.13;;;12.10;99.90;;;;;;4954422;28;20502;-79
2023/05/23 05:29:07;;;;;;;15.02;5.82;;;12.10;99.90;;;;;;4956162;28;20057;-79
2023/05/23 05:31:34;;;;;;;21.02;6.78;;;12.10;99.90;;;;;;4954764;28;20454;-79
2023/05/23 05:34:00;;;;;;;17.63;6.85;;;12.10;99.90;;;;;;4954366;29;20079;-77
2023/05/23 05:36:25;;;;;;;23.30;6.60;;;12.10;99.90;;;;;;4955814;28;20074;-77
2023/05/23 05:38:52;;;;;;;19.27;6.30;;;12.10;99.90;;;;;;4954203;28;20039;-80
2023/05/23 05:41:17;;;;;;;19.48;5.72;;;12.00;99.90;;;;;;4955403;28;20118;-78
2023/05/23 05:43:43;;;;;;;16.60;6.03;;;12.00;99.90;;;;;;4954475;28;20139;-77
2023/05/23 05:46:10;;;;;;;15.50;6.03;;;12.00;99.90;;;;;;4954128;28;20514;-78
2023/05/23 05:48:35;;;;;;;14.18;5.43;;;12.00;99.90;;;;;;4955397;28;20035;-78
2023/05/23 05:51:02;;;;;;;19.50;5.78;;;12.00;99.90;;;;;;4954015;28;20559;-78
2023/05/23 05:53:27;;;;;;;19.13;5.55;;;12.00;99.90;;;;;;4954400;29;20399;-73
2023/05/23 05:55:53;;;;;;;20.58;5.55;;;12.00;99.90;;;;;;4955731;28;20039;-74
2023/05/23 05:58:19;;;;;;;18.60;5.50;;;12.00;99.90;;;;;;4938062;29;20039;-74
2023/05/23 06:00:45;;;;;;;16.30;5.78;;;12.00;99.90;;;;;;4953789;29;20051;-76
2023/05/23 06:03:11;;;;;;;17.27;5.15;;;12.00;99.90;;;;;;4955196;29;20047;-75
2023/05/23 06:05:38;;;;;;;19.20;6.68;;;12.00;99.90;;;;;;4955206;28;20398;-76
2023/05/23 06:08:04;;;;;;;23.15;6.05;;;12.10;99.90;;;;;;4954121;29;20066;-78
2023/05/23 06:10:29;;;;;;;13.68;5.40;;;12.10;99.90;;;;;;4953810;29;20479;-78
2023/05/23 06:12:58;;;;;;;18.30;5.82;;;12.10;99.90;;;;;;4953891;28;20125;-77
2023/05/23 06:15:24;;;;;;;13.40;5.00;;;12.20;99.90;;;;;;4937664;29;20124;-78
2023/05/23 06:17:50;;;;;;;18.85;5.00;;;12.20;99.90;;;;;;4955347;28;20444;-75
2023/05/23 06:20:16;;;;;;;14.60;4.60;;;12.20;99.90;;;;;;4953770;28;20126;-76
2023/05/23 06:22:42;;;;;;;10.60;4.13;;;12.20;99.90;;;;;;4953935;28;20043;-76
2023/05/23 06:25:07;;;;;;;14.90;4.18;;;12.10;99.90;;;;;;4955130;28;20126;-74
2023/05/23 06:27:33;;;;;;;18.02;3.90;;;12.10;99.90;;;;;;4953532;29;20399;-77
2023/05/23 06:29:59;;;;;;;17.65;3.88;;;12.10;99.90;;;;;;4954762;29;20376;-77
2023/05/23 06:32:24;;;;;;;20.92;5.55;;;12.00;99.90;;;;;;4953599;29;20376;-76
2023/05/23 06:34:50;;;;;;;24.20;4.20;;;12.00;99.90;;;;;;4954823;28;20452;-76
2023/05/23 06:37:16;;;;;;;16.92;4.82;;;11.90;99.90;;;;;;4953619;29;20406;-76
2023/05/23 06:39:42;;;;;;;18.13;4.30;;;11.90;99.90;;;;;;4954756;29;20044;-78
2023/05/23 06:42:08;;;;;;;19.65;5.05;;;11.90;99.90;;;;;;4954896;28;20054;-77
2023/05/23 06:44:34;;;;;;;21.75;5.18;;;11.80;99.90;;;;;;4955116;28;20375;-78
2023/05/23 06:46:59;;;;;;;15.32;3.45;;;11.90;99.90;;;;;;4953618;28;20062;-77
2023/05/23 06:49:25;;;;;;;15.63;3.28;;;12.00;99.90;;;;;;4954325;29;20470;-77
2023/05/23 06:51:51;;;;;;;17.70;3.55;;;12.10;99.90;;;;;;4953795;28;20035;-77
2023/05/23 06:54:17;;;;;;;20.00;3.95;;;12.20;99.90;;;;;;4953621;28;20046;-79
2023/05/23 06:56:43;;;;;;;19.60;4.20;;;12.30;99.90;;;;;;4953838;29;20098;-76
2023/05/23 06:59:09;;;;;;;15.38;3.97;;;12.30;99.90;;;;;;4953376;28;20443;-76
2023/05/23 07:01:34;;;;;;;24.25;4.97;;;12.40;99.90;;;;;;4954649;29;20047;-77
2023/05/23 07:04:00;;;;;;;17.85;3.78;;;12.40;99.90;;;;;;4953627;28;20047;-76
2023/05/23 07:06:27;;;;;;;18.27;3.80;;;12.50;99.90;;;;;;4953218;29;20057;-77
2023/05/23 07:08:53;;;;;;;18.23;3.78;;;12.50;99.90;;;;;;4953301;29;20035;-79
2023/05/23 07:11:22;;;;;;;22.45;5.28;;;12.50;99.90;;;;;;4953298;28;20047;-78
2023/05/23 07:13:47;;;;;;;18.75;3.92;;;12.60;99.90;;;;;;4954749;29;20035;-75
2023/05/23 07:16:13;;;;;;;23.52;4.10;;;12.70;99.90;;;;;;4953251;29;20538;-77
2023/05/23 07:18:39;;;;;;;19.42;4.95;;;12.70;99.90;;;;;;4953395;29;20050;-76
2023/05/23 07:21:05;;;;;;;19.88;3.80;;;12.70;99.90;;;;;;4953222;29;20358;-74
2023/05/23 07:23:33;;;;;;;16.23;3.55;;;12.70;99.90;;;;;;4954848;29;20035;-80
2023/05/23 07:26:01;;;;;;;20.52;4.22;;;12.70;99.90;;;;;;4954932;28;20050;-77
2023/05/23 07:28:27;;;;;;;21.50;4.25;;;12.70;99.90;;;;;;4956683;29;20050;-78
2023/05/23 07:30:52;;;;;;;20.48;4.63;;;12.60;99.90;;;;;;4956893;28;20410;-77
2023/05/23 07:33:18;;;;;;;22.23;3.45;;;12.50;99.90;;;;;;4960271;28;20075;-76
2023/05/23 07:35:44;;;;;;;21.60;4.30;;;12.50;99.90;;;;;;4958597;28;20048;-77
2023/05/23 07:38:09;;;;;;;14.23;3.53;;;12.60;99.90;;;;;;4941428;29;20043;-76
2023/05/23 07:40:37;;;;;;;20.85;3.33;;;12.60;99.90;;;;;;4956764;28;20423;-75
2023/05/23 07:43:03;;;;;;;14.88;2.75;;;12.70;99.90;;;;;;4957787;28;20038;-76
2023/05/23 07:45:29;;;;;;;16.77;2.90;;;12.80;99.90;;;;;;4956671;28;20467;-77
2023/05/23 07:47:54;;;;;;;17.52;3.08;;;12.80;99.90;;;;;;4956276;28;20110;-78
2023/05/23 07:50:20;;;;;;;15.38;3.20;;;12.80;99.90;;;;;;4956767;28;20436;-75
2023/05/23 07:52:46;;;;;;;24.27;3.90;;;12.80;99.90;;;;;;4957422;28;20043;-76
2023/05/23 07:55:12;;;;;;;18.48;3.28;;;12.80;99.90;;;;;;4956438;28;20078;-78
2023/05/23 07:57:37;;;;;;;17.92;4.68;;;12.80;99.90;;;;;;4956929;29;20058;-77
2023/05/23 08:00:04;;;;;;;17.02;3.45;;;12.90;99.90;;;;;;4956299;29;20440;-76
2023/05/23 08:02:30;;;;;;;20.20;3.50;;;12.90;99.90;;;;;;4956152;28;20403;-76
2023/05/23 08:04:56;;;;;;;18.48;3.17;;;12.90;99.90;;;;;;4957502;29;20043;-75
2023/05/23 08:07:22;;;;;;;20.33;3.97;;;13.00;99.90;;;;;;4957061;28;20054;-78
2023/05/23 08:09:47;;;;;;;14.70;3.08;;;13.00;99.90;;;;;;4955905;28;20500;-76
2023/05/23 08:12:13;;;;;;;16.85;4.00;;;13.00;99.90;;;;;;4954132;28;20110;-75
2023/05/23 08:14:39;;;;;;;19.83;3.80;;;13.10;99.90;;;;;;4953831;29;20054;-77
2023/05/23 08:17:05;;;;;;;17.42;3.25;;;13.10;99.90;;;;;;4955382;28;20167;-74
2023/05/23 08:19:30;;;;;;;17.92;3.17;;;13.00;99.90;;;;;;4953811;28;20043;-77
2023/05/23 08:21:56;;;;;;;12.10;3.30;;;13.00;99.90;;;;;;4955342;28;20039;-74
2023/05/23 08:24:22;;;;;;;16.25;3.70;;;13.10;99.90;;;;;;4953811;28;20050;-76
2023/05/23 08:26:49;;;;;;;22.25;3.10;;;13.20;99.90;;;;;;4939205;29;20051;-76
2023/05/23 08:29:14;;;;;;;15.57;3.28;;;13.30;99.90;;;;;;4956979;28;20043;-77
2023/05/23 08:31:40;;;;;;;17.70;3.47;;;13.50;99.90;;;;;;4955654;28;20053;-77
2023/05/23 08:34:06;;;;;;;20.88;3.50;;;13.60;99.90;;;;;;4956719;29;20059;-78
2023/05/23 08:36:35;;;;;;;20.33;4.40;;;13.80;99.90;;;;;;4956972;28;20039;-74
2023/05/23 08:39:01;;;;;;;19.27;3.67;;;14.00;99.90;;;;;;4955072;28;20047;-75
2023/05/23 08:41:29;;;;;;;14.20;3.30;;;14.10;99.90;;;;;;4955953;28;20039;-76
2023/05/23 08:43:55;;;;;;;19.63;3.45;;;14.10;99.90;;;;;;4939780;29;20062;-74
2023/05/23 08:46:21;;;;;;;18.27;3.60;;;14.10;99.90;;;;;;4955804;28;20047;-76
2023/05/23 08:48:53;;;;;;;16.83;3.90;;;14.00;99.90;;;;;;4939567;29;20046;-74
2023/05/23 08:51:22;;;;;;;16.48;3.58;;;13.90;99.90;;;;;;4957079;28;20035;-77
2023/05/23 08:53:49;;;;;;;18.13;3.65;;;13.90;99.90;;;;;;4939776;29;20411;-76
2023/05/23 08:56:15;;;;;;;13.98;2.97;;;13.90;99.90;;;;;;4956620;28;20050;-74
2023/05/23 08:58:42;;;;;;;18.52;3.08;;;14.00;99.90;;;;;;4955056;29;20047;-77
2023/05/23 09:01:12;;;;;;;23.88;4.25;;;14.10;99.90;;;;;;4956003;28;20047;-72
2023/05/23 09:03:38;;;;;;;15.50;3.60;;;14.00;99.90;;;;;;4957181;28;20046;-74
2023/05/23 09:06:08;;;;;;;20.77;3.75;;;14.10;99.90;;;;;;4957155;29;20118;-77
2023/05/23 09:08:34;;;;;;;22.00;3.65;;;14.20;99.90;;;;;;4955081;29;20543;-74
2023/05/23 09:11:01;;;;;;;17.05;3.65;;;14.30;99.90;;;;;;4956293;28;20043;-74
2023/05/23 09:13:30;;;;;;;16.42;2.80;;;14.40;99.90;;;;;;4956192;28;20036;-76
2023/05/23 09:16:01;;;;;;;14.95;3.67;;;14.60;99.90;;;;;;4956184;29;20085;-76
2023/05/23 09:18:40;;;;;;;17.63;3.38;;;14.70;99.90;;;;;;4954598;28;20059;-75
2023/05/23 09:21:07;;;;;;;22.02;3.72;;;14.90;99.90;;;;;;4956341;28;20044;-77
2023/05/23 09:23:40;;;;;;;16.02;3.60;;;15.30;99.90;;;;;;4956176;28;20086;-74
2023/05/23 09:26:08;;;;;;;21.13;4.32;;;15.60;99.90;;;;;;4956103;28;20102;-76
2023/05/23 09:28:35;;;;;;;14.05;3.22;;;15.90;99.90;;;;;;4956203;28;20065;-75
2023/05/23 09:31:01;;;;;;;16.30;3.30;;;16.10;99.90;;;;;;4954588;29;20051;-76
2023/05/23 09:33:48;;;;;;;15.23;3.55;;;16.10;99.90;;;;;;4954375;29;20075;-75
2023/05/23 09:36:15;;;;;;;18.55;3.38;;;15.90;99.90;;;;;;4954365;29;20043;-77
2023/05/23 09:38:46;;;;;;;17.95;3.13;;;15.70;99.90;;;;;;4954350;29;20082;-75
2023/05/23 09:41:12;;;;;;;13.10;2.78;;;15.60;99.90;;;;;;4955447;28;20031;-75
2023/05/23 09:43:39;;;;;;;12.90;3.22;;;15.60;99.90;;;;;;4955549;28;20042;-75
2023/05/23 09:46:09;;;;;;;15.30;3.45;;;15.40;99.90;;;;;;4955307;28;20122;-74
2023/05/23 09:48:36;;;;;;;16.70;3.28;;;15.20;99.90;;;;;;4956140;28;20043;-75
2023/05/23 09:51:09;;;;;;;15.25;3.08;;;15.30;99.90;;;;;;4953452;28;20047;-75
2023/05/23 09:53:35;;;;;;;12.02;3.00;;;15.40;99.90;;;;;;4938229;29;20102;-76
2023/05/23 09:56:05;;;;;;;15.02;3.50;;;15.60;99.90;;;;;;4954415;28;20039;-77
2023/05/23 09:58:34;;;;;;;15.25;3.17;;;15.60;99.90;;;;;;4954297;29;20093;-75
2023/05/23 10:01:04;;;;;;;18.77;3.35;;;15.60;99.90;;;;;;4955163;28;20518;-76
2023/05/23 10:03:49;;;;;;;16.02;3.58;;;15.50;99.90;;;;;;4956340;29;20130;-72
2023/05/23 10:06:25;;;;;;;19.83;3.75;;;15.40;99.90;;;;;;4938260;29;20514;-75
2023/05/23 10:09:02;;;;;;;16.83;2.90;;;15.30;99.90;;;;;;4953920;29;20089;-78
2023/05/23 10:11:34;;;;;;;17.55;3.25;;;15.20;99.90;;;;;;4953959;29;20565;-76
2023/05/23 10:14:06;;;;;;;16.17;3.22;;;15.00;99.90;;;;;;4953894;28;20126;-76
2023/05/23 10:17:02;;;;;;;16.63;3.00;;;14.90;99.90;;;;;;4953939;29;20054;-75
2023/05/23 10:19:40;;;;;;;15.65;3.10;;;14.90;99.90;;;;;;4955293;29;20055;-75
2023/05/23 10:22:09;;;;;;;12.80;3.15;;;15.00;99.90;;;;;;4953842;29;20115;-76
2023/05/23 10:24:36;;;;;;;13.63;2.85;;;15.00;99.90;;;;;;4954010;29;20537;-75
2023/05/23 10:27:02;;;;;;;15.63;2.88;;;15.00;99.90;;;;;;4953893;28;20047;-74
2023/05/23 10:29:28;;;;;;;16.02;3.20;;;15.10;99.90;;;;;;4954050;28;20043;-76
2023/05/23 10:31:55;;;;;;;18.98;3.38;;;15.10;99.90;;;;;;4954276;28;20047;-74
2023/05/23 10:34:37;;;;;;;16.30;3.28;;;15.20;99.90;;;;;;4955433;28;20356;-77
2023/05/23 10:37:05;;;;;;;12.20;2.50;;;15.20;99.90;;;;;;4955638;28;20069;-74
2023/05/23 10:39:37;;;;;;;15.20;3.05;;;15.50;99.90;;;;;;4937833;29;20380;-79
2023/05/23 10:42:37;;;;;;;13.73;3.30;;;15.50;99.90;;;;;;4938190;29;20373;-76
2023/05/23 10:45:23;;;;;;;12.30;3.20;;;15.60;99.90;;;;;;4946141;29;20545;-77
2023/05/23 10:47:51;;;;;;;18.45;3.80;;;15.50;99.90;;;;;;4954131;28;20054;-78
2023/05/23 10:50:36;;;;;;;14.75;2.90;;;15.30;99.90;;;;;;4955523;29;20380;-78
2023/05/23 10:53:03;;;;;;;14.10;2.90;;;15.40;99.90;;;;;;4955146;28;20047;-81
2023/05/23 10:55:34;;;;;;;13.45;2.72;;;15.30;99.90;;;;;;4953565;29;20097;-78
2023/05/23 10:58:17;;;;;;;17.70;3.00;;;15.20;99.90;;;;;;4953635;29;20051;-76
2023/05/23 11:01:18;;;;;;;10.65;2.42;;;15.30;99.90;;;;;;4954551;28;20066;-76
2023/05/23 11:03:47;;;;;;;17.38;2.90;;;15.60;99.90;;;;;;4927015;28;20383;-79
2023/05/23 11:06:43;;;;;;;19.27;3.45;;;15.60;99.90;;;;;;4957483;28;20068;-79
2023/05/23 11:09:18;;;;;;;16.92;3.35;;;15.50;99.90;;;;;;4957132;29;20118;-78
2023/05/23 11:11:52;;;;;;;17.10;3.50;;;15.40;99.90;;;;;;4958514;28;20042;-74
2023/05/23 11:14:19;;;;;;;13.17;3.50;;;15.30;99.90;;;;;;4958507;28;20134;-75
2023/05/23 11:16:47;;;;;;;12.05;2.65;;;15.30;99.90;;;;;;4958637;28;20047;-76
2023/05/23 11:19:24;;;;;;;13.27;3.03;;;15.40;99.90;;;;;;4957495;28;20047;-78
2023/05/23 11:21:54;;;;;;;23.00;3.97;;;15.60;99.90;;;;;;4958516;29;20047;-77
2023/05/23 11:24:21;;;;;;;16.33;2.55;;;15.50;99.90;;;;;;4957195;28;20054;-76
2023/05/23 11:27:00;;;;;;;12.25;2.15;;;15.60;99.90;;;;;;4956907;29;20106;-75
2023/05/23 11:29:30;;;;;;;18.17;3.08;;;15.90;99.90;;;;;;4957471;29;20047;-77
2023/05/23 11:31:56;;;;;;;14.57;3.15;;;16.00;99.90;;;;;;4958378;29;20087;-75
2023/05/23 11:34:25;;;;;;;12.30;2.60;;;16.00;99.90;;;;;;4956857;29;20039;-76
2023/05/23 11:36:55;;;;;;;18.17;2.85;;;16.00;99.90;;;;;;4956708;29;20063;-76
2023/05/23 11:39:21;;;;;;;16.27;2.80;;;16.10;99.90;;;;;;4958550;28;20047;-74
2023/05/23 11:41:58;;;;;;;11.23;3.05;;;16.10;99.90;;;;;;4956363;28;20101;-76
2023/05/23 11:44:24;;;;;;;12.07;2.63;;;16.00;99.90;;;;;;4956885;29;20051;-79
2023/05/23 11:47:05;;;;;;;15.50;3.22;;;15.80;99.90;;;;;;4940736;29;20047;-75
2023/05/23 11:49:33;;;;;;;16.20;2.80;;;15.80;99.90;;;;;;4957688;28;20039;-77
2023/05/23 11:52:01;;;;;;;14.73;3.13;;;15.90;99.90;;;;;;4957933;28;20043;-75
2023/05/23 11:54:27;;;;;;;18.75;3.08;;;16.00;99.90;;;;;;4958060;28;20039;-78
2023/05/23 11:56:54;;;;;;;15.70;3.33;;;15.80;99.90;;;;;;4956528;29;20058;-77
2023/05/23 11:59:21;;;;;;;14.15;2.58;;;15.90;99.90;;;;;;4957591;28;20035;-77
2023/05/23 12:01:47;;;;;;;11.88;2.95;;;15.80;99.90;;;;;;4956443;28;20047;-78
2023/05/23 12:04:13;;;;;;;14.65;2.80;;;15.80;99.90;;;;;;4956150;29;20085;-76
2023/05/23 12:06:40;;;;;;;13.43;2.75;;;15.70;99.90;;;;;;4957665;28;20175;-77
2023/05/23 12:09:06;;;;;;;17.42;2.90;;;15.80;99.90;;;;;;4956327;29;20031;-76
2023/05/23 12:11:33;;;;;;;11.60;2.60;;;15.90;99.90;;;;;;4957472;28;20047;-75
2023/05/23 12:14:01;;;;;;;11.00;2.30;;;15.70;99.90;;;;;;4955204;28;20058;-76
2023/05/23 12:16:30;;;;;;;8.95;1.88;;;15.80;99.90;;;;;;4957191;28;20054;-76
2023/05/23 12:18:57;;;;;;;11.65;2.83;;;16.20;99.90;;;;;;4956030;29;20071;-73
2023/05/23 12:21:25;;;;;;;12.80;2.78;;;16.40;99.90;;;;;;4955816;28;20557;-76
2023/05/23 12:23:51;;;;;;;17.83;3.13;;;16.40;99.90;;;;;;4955970;29;20467;-74
2023/05/23 12:26:17;;;;;;;15.25;2.83;;;16.40;99.90;;;;;;4939930;29;20085;-76
2023/05/23 12:28:44;;;;;;;15.50;2.83;;;16.40;99.90;;;;;;4956388;29;20067;-76
2023/05/23 12:31:20;;;;;;;11.05;2.70;;;16.40;99.90;;;;;;4955888;29;20102;-77
2023/05/23 12:33:47;;;;;;;11.07;2.42;;;16.30;99.90;;;;;;4955664;29;20039;-76
2023/05/23 12:36:33;;;;;;;13.20;2.38;;;16.30;99.90;;;;;;4956930;28;20098;-75
2023/05/23 12:39:03;;;;;;;11.63;2.65;;;16.70;99.90;;;;;;4955838;29;20373;-76
2023/05/23 12:41:31;;;;;;;15.68;3.00;;;16.80;99.90;;;;;;4939774;29;20047;-75
2023/05/23 12:43:57;;;;;;;11.88;2.45;;;16.70;99.90;;;;;;4956922;28;20070;-74
2023/05/23 12:46:24;;;;;;;15.48;3.15;;;16.50;99.90;;;;;;4955393;29;20051;-75
2023/05/23 12:48:50;;;;;;;11.60;2.70;;;16.20;99.90;;;;;;4956640;28;20043;-74
2023/05/23 12:51:16;;;;;;;11.00;2.55;;;16.10;99.90;;;;;;4955474;29;20055;-78
2023/05/23 12:53:42;;;;;;;18.08;3.58;;;16.00;99.90;;;;;;4955473;28;20035;-76
2023/05/23 12:56:08;;;;;;;15.80;3.35;;;15.90;99.90;;;;;;4955317;28;20139;-76
2023/05/23 12:58:34;;;;;;;16.52;3.15;;;15.80;99.90;;;;;;4956238;28;20525;-76
2023/05/23 13:01:01;;;;;;;18.25;3.22;;;15.70;99.90;;;;;;4954943;28;20105;-76
2023/05/23 13:03:29;;;;;;;12.27;2.70;;;15.70;99.90;;;;;;4955448;29;20438;-77
2023/05/23 13:05:56;;;;;;;12.60;3.20;;;16.00;99.90;;;;;;4954880;29;20182;-76
2023/05/23 13:08:22;;;;;;;9.98;2.13;;;16.20;99.90;;;;;;4955342;29;20112;-74
2023/05/23 13:10:48;;;;;;;12.05;2.55;;;16.00;99.90;;;;;;4954947;29;20066;-79
2023/05/23 13:13:14;;;;;;;10.60;2.10;;;16.20;99.90;;;;;;4954930;28;20039;-73
2023/05/23 13:15:39;;;;;;;12.63;2.45;;;16.50;99.90;;;;;;4955049;28;20043;-75
2023/05/23 13:18:05;;;;;;;11.02;2.03;;;16.70;99.90;;;;;;4938925;29;20130;-79
2023/05/23 13:20:31;;;;;;;13.77;2.80;;;17.00;99.90;;;;;;4954794;28;20051;-77
2023/05/23 13:22:57;;;;;;;13.27;2.17;;;17.00;99.90;;;;;;4954656;28;20047;-74
2023/05/23 13:25:24;;;;;;;14.32;2.30;;;17.00;99.90;;;;;;4954823;28;20058;-75
2023/05/23 13:27:49;;;;;;;10.95;2.10;;;16.90;99.90;;;;;;4954478;29;20126;-78
2023/05/23 13:30:15;;;;;;;10.57;2.72;;;16.70;99.90;;;;;;4956013;29;20118;-76
2023/05/23 13:32:41;;;;;;;10.02;2.10;;;16.70;99.90;;;;;;4955939;28;20054;-74
2023/05/23 13:35:07;;;;;;;16.17;2.40;;;16.70;99.90;;;;;;4954587;29;20043;-76
2023/05/23 13:37:33;;;;;;;15.73;2.08;;;16.80;99.90;;;;;;4956242;28;20118;-78
2023/05/23 13:40:02;;;;;;;12.27;2.28;;;17.10;99.90;;;;;;4955300;29;20079;-74
2023/05/23 13:42:27;;;;;;;10.23;2.10;;;17.20;99.90;;;;;;4955813;28;20050;-74
2023/05/23 13:44:53;;;;;;;16.42;2.85;;;17.30;99.90;;;;;;4955803;28;20035;-79
2023/05/23 13:47:19;;;;;;;13.95;2.67;;;17.30;99.90;;;;;;4938266;29;20408;-76
2023/05/23 13:49:44;;;;;;;10.30;2.35;;;17.20;99.90;;;;;;4955881;28;20078;-76
2023/05/23 13:52:11;;;;;;;10.10;2.40;;;17.30;99.90;;;;;;4955801;28;20499;-75
2023/05/23 13:54:37;;;;;;;12.82;2.65;;;17.30;99.90;;;;;;4954328;29;20043;-75
2023/05/23 13:57:03;;;;;;;10.25;2.42;;;17.40;99.90;;;;;;4938376;29;20053;-76
2023/05/23 13:59:28;;;;;;;10.55;2.28;;;17.10;99.90;;;;;;4954203;29;20126;-76
2023/05/23 14:01:54;;;;;;;8.38;2.40;;;17.00;99.90;;;;;;4955256;28;20407;-75
2023/05/23 14:04:20;;;;;;;13.45;2.63;;;17.10;99.90;;;;;;4955509;28;20391;-76
2023/05/23 14:06:46;;;;;;;10.93;2.63;;;17.30;99.90;;;;;;4955303;29;20058;-79
2023/05/23 14:09:11;;;;;;;11.95;2.63;;;17.50;99.90;;;;;;4955322;28;20074;-77
2023/05/23 14:11:38;;;;;;;8.95;2.25;;;17.40;99.90;;;;;;4955537;28;20538;-76
2023/05/23 14:14:04;;;;;;;15.18;2.65;;;17.00;99.90;;;;;;4954302;29;20126;-76
2023/05/23 14:16:30;;;;;;;10.40;2.88;;;17.10;99.90;;;;;;4953759;28;20126;-76
2023/05/23 14:18:56;;;;;;;14.52;2.65;;;17.10;99.90;;;;;;4955184;28;20043;-76
2023/05/23 14:21:22;;;;;;;14.98;2.83;;;17.10;99.90;;;;;;4953904;29;20070;-77
2023/05/23 14:23:47;;;;;;;12.10;2.53;;;16.80;99.90;;;;;;4954499;29;20071;-78
2023/05/23 14:26:13;;;;;;;8.82;1.90;;;16.70;99.90;;;;;;4953858;28;20051;-77
2023/05/23 14:28:39;;;;;;;11.68;2.83;;;16.90;99.90;;;;;;4938069;29;20371;-75
2023/05/23 14:31:05;;;;;;;10.77;2.40;;;17.30;99.90;;;;;;4953631;29;20054;-76
2023/05/23 14:33:31;;;;;;;11.57;2.40;;;17.40;99.90;;;;;;4953867;29;20078;-77
2023/05/23 14:35:56;;;;;;;11.50;2.75;;;17.60;99.90;;;;;;4954090;28;20036;-74
2023/05/23 14:38:22;;;;;;;9.57;1.85;;;17.50;99.90;;;;;;4958874;28;20035;-77
2023/05/23 14:40:48;;;;;;;10.13;2.00;;;17.40;99.90;;;;;;4958071;28;20075;-75
2023/05/23 14:43:14;;;;;;;10.15;2.30;;;17.10;98.90;;;;;;4959644;29;20135;-78
2023/05/23 14:45:40;;;;;;;12.40;2.38;;;16.70;98.70;;;;;;4958569;28;20051;-76
2023/05/23 14:48:06;;;;;;;15.77;2.80;;;16.40;99.50;;;;;;4942114;29;20526;-73
2023/05/23 14:50:32;;;;;;;12.88;2.40;;;16.40;99.90;;;;;;4959570;28;20035;-76
2023/05/23 14:52:58;;;;;;;17.40;4.22;;;16.50;99.90;;;;;;4959256;28;20046;-76
2023/05/23 14:55:24;;;;;;;12.73;2.80;;;16.80;99.90;;;;;;4959303;28;20039;-78
2023/05/23 14:57:50;;;;;;;14.30;2.60;;;17.00;99.90;;;;;;4959612;28;20391;-73
2023/05/23 15:00:16;;;;;;;10.60;2.35;;;17.20;99.90;;;;;;4960066;29;20055;-76
2023/05/23 15:02:42;;;;;;;12.70;2.10;;;17.40;99.30;;;;;;4960212;28;20101;-77
2023/05/23 15:05:08;;;;;;;13.50;2.30;;;17.40;98.30;;;;;;4961129;29;20435;-75
2023/05/23 15:07:34;;;;;;;8.23;2.15;;;17.40;97.20;;;;;;4957861;28;20118;-78
2023/05/23 15:10:01;;;;;;;13.90;2.50;;;17.50;97.80;;;;;;4958829;28;20172;-73
2023/05/23 15:12:27;;;;;;;14.63;2.65;;;17.40;96.60;;;;;;4958831;28;20439;-74
2023/05/23 15:15:01;;;;;;;9.05;2.17;;;17.50;96.50;;;;;;4959353;28;20039;-78
2023/05/23 15:17:27;;;;;;;13.77;3.05;;;17.50;97.00;;;;;;4958989;28;20043;-81
2023/05/23 15:19:53;;;;;;;11.85;2.10;;;17.50;97.40;;;;;;4957967;29;20043;-77
2023/05/23 15:22:18;;;;;;;11.15;2.30;;;17.40;97.50;;;;;;4957560;29;20046;-74
2023/05/23 15:24:44;;;;;;;10.40;1.95;;;17.20;97.10;;;;;;4957468;28;20047;-77
2023/05/23 15:27:10;;;;;;;11.23;2.13;;;17.10;97.20;;;;;;4957362;28;20054;-76
2023/05/23 15:29:38;;;;;;;8.35;2.05;;;16.80;96.90;;;;;;4958731;28;20039;-76
2023/05/23 15:32:05;;;;;;;8.65;1.73;;;16.70;97.20;;;;;;4958832;28;20050;-76
2023/05/23 15:34:30;;;;;;;8.95;2.10;;;16.80;97.30;;;;;;4957696;29;20486;-75
2023/05/23 15:36:56;;;;;;;11.63;2.35;;;16.70;96.50;;;;;;4957071;28;20047;-76
2023/05/23 15:39:21;;;;;;;10.15;2.25;;;16.80;96.20;;;;;;4957359;28;20047;-78